sensor_id;sensor_type;location;lat;lon;timestamp;P1;durP1;ratioP1;P2;durP2;ratioP2
16854;SDS011;8543;54.522;18.550;2023-02-12T00:01:35;4.90;;;2.00;;
16854;SDS011;8543;54.522;18.550;2023-02-12T00:04:01;7.00;;;2.50;;
16854;SDS011;8543;54.522;18.550;2023-02-12T00:06:26;7.20;;;2.40;;
16854;SDS011;8543;54.522;18.550;2023-02-12T00:08:53;8.10;;;2.60;;
16854;SDS011;8543;54.522;18.550;2023-02-12T00:11:21;6.80;;;2.40;;
16854;SDS011;8543;54.522;18.550;2023-02-12T00:13:51;6.70;;;2.00;;
16854;SDS011;8543;54.522;18.550;2023-02-12T00:16:18;5.80;;;2.10;;
16854;SDS011;8543;54.522;18.550;2023-02-12T00:18:45;5.40;;;2.40;;
16854;SDS011;8543;54.522;18.550;2023-02-12T00:21:11;7.10;;;2.50;;
16854;SDS011;8543;54.522;18.550;2023-02-12T00:23:41;6.30;;;2.50;;
16854;SDS011;8543;54.522;18.550;2023-02-12T00:26:08;4.60;;;1.80;;
16854;SDS011;8543;54.522;18.550;2023-02-12T00:28:34;7.20;;;2.20;;
16854;SDS011;8543;54.522;18.550;2023-02-12T00:31:04;3.20;;;1.40;;
16854;SDS011;8543;54.522;18.550;2023-02-12T00:33:34;5.00;;;1.80;;
16854;SDS011;8543;54.522;18.550;2023-02-12T00:35:59;4.00;;;1.50;;
16854;SDS011;8543;54.522;18.550;2023-02-12T00:38:25;5.00;;;1.70;;
16854;SDS011;8543;54.522;18.550;2023-02-12T00:40:50;5.80;;;1.80;;
16854;SDS011;8543;54.522;18.550;2023-02-12T00:43:16;2.80;;;1.40;;
16854;SDS011;8543;54.522;18.550;2023-02-12T00:45:43;3.40;;;1.60;;
16854;SDS011;8543;54.522;18.550;2023-02-12T00:48:09;3.20;;;1.60;;
16854;SDS011;8543;54.522;18.550;2023-02-12T00:50:34;4.10;;;1.80;;
16854;SDS011;8543;54.522;18.550;2023-02-12T00:53:05;3.90;;;2.00;;
16854;SDS011;8543;54.522;18.550;2023-02-12T00:55:31;5.00;;;2.20;;
16854;SDS011;8543;54.522;18.550;2023-02-12T00:57:58;6.60;;;3.00;;
16854;SDS011;8543;54.522;18.550;2023-02-12T01:00:23;8.50;;;3.50;;
16854;SDS011;8543;54.522;18.550;2023-02-12T01:02:52;7.80;;;3.50;;
16854;SDS011;8543;54.522;18.550;2023-02-12T01:05:20;7.20;;;3.30;;
16854;SDS011;8543;54.522;18.550;2023-02-12T01:07:49;6.50;;;3.20;;
16854;SDS011;8543;54.522;18.550;2023-02-12T01:10:22;8.60;;;3.80;;
16854;SDS011;8543;54.522;18.550;2023-02-12T01:12:48;8.00;;;3.70;;
16854;SDS011;8543;54.522;18.550;2023-02-12T01:15:13;8.20;;;3.70;;
16854;SDS011;8543;54.522;18.550;2023-02-12T01:17:39;6.50;;;3.20;;
16854;SDS011;8543;54.522;18.550;2023-02-12T01:20:06;8.10;;;3.10;;
16854;SDS011;8543;54.522;18.550;2023-02-12T01:22:33;7.30;;;3.00;;
16854;SDS011;8543;54.522;18.550;2023-02-12T01:24:59;7.00;;;2.90;;
16854;SDS011;8543;54.522;18.550;2023-02-12T01:27:25;6.90;;;2.80;;
16854;SDS011;8543;54.522;18.550;2023-02-12T01:29:50;5.50;;;2.50;;
16854;SDS011;8543;54.522;18.550;2023-02-12T01:32:16;7.20;;;2.80;;
16854;SDS011;8543;54.522;18.550;2023-02-12T01:34:42;6.90;;;2.70;;
16854;SDS011;8543;54.522;18.550;2023-02-12T01:37:07;5.50;;;2.60;;
16854;SDS011;8543;54.522;18.550;2023-02-12T01:39:33;8.20;;;3.70;;
16854;SDS011;8543;54.522;18.550;2023-02-12T01:41:59;9.30;;;3.60;;
16854;SDS011;8543;54.522;18.550;2023-02-12T01:44:28;11.40;;;4.00;;
16854;SDS011;8543;54.522;18.550;2023-02-12T01:46:58;12.80;;;4.40;;
16854;SDS011;8543;54.522;18.550;2023-02-12T01:51:52;10.50;;;5.00;;
16854;SDS011;8543;54.522;18.550;2023-02-12T01:54:22;9.50;;;4.20;;
16854;SDS011;8543;54.522;18.550;2023-02-12T01:56:49;9.90;;;3.70;;
16854;SDS011;8543;54.522;18.550;2023-02-12T01:59:15;9.50;;;3.80;;
16854;SDS011;8543;54.522;18.550;2023-02-12T02:01:41;9.60;;;4.30;;
16854;SDS011;8543;54.522;18.550;2023-02-12T02:04:08;9.00;;;4.10;;
16854;SDS011;8543;54.522;18.550;2023-02-12T02:06:56;9.20;;;3.60;;
16854;SDS011;8543;54.522;18.550;2023-02-12T02:09:23;8.80;;;3.60;;
16854;SDS011;8543;54.522;18.550;2023-02-12T02:11:48;7.10;;;3.70;;
16854;SDS011;8543;54.522;18.550;2023-02-12T02:14:32;7.80;;;3.50;;
16854;SDS011;8543;54.522;18.550;2023-02-12T02:17:03;10.60;;;3.70;;
16854;SDS011;8543;54.522;18.550;2023-02-12T02:31:02;6.50;;;2.60;;
16854;SDS011;8543;54.522;18.550;2023-02-12T02:41:34;4.80;;;2.20;;
16854;SDS011;8543;54.522;18.550;2023-02-12T02:44:06;5.40;;;2.00;;
16854;SDS011;8543;54.522;18.550;2023-02-12T02:49:12;5.10;;;2.20;;
16854;SDS011;8543;54.522;18.550;2023-02-12T02:51:42;5.80;;;2.20;;
16854;SDS011;8543;54.522;18.550;2023-02-12T02:54:57;4.60;;;1.80;;
16854;SDS011;8543;54.522;18.550;2023-02-12T02:56:59;3.70;;;1.80;;
16854;SDS011;8543;54.522;18.550;2023-02-12T02:59:30;4.60;;;2.00;;
16854;SDS011;8543;54.522;18.550;2023-02-12T03:02:03;4.80;;;1.80;;
16854;SDS011;8543;54.522;18.550;2023-02-12T03:04:38;3.90;;;1.60;;
16854;SDS011;8543;54.522;18.550;2023-02-12T03:09:56;3.10;;;1.40;;
16854;SDS011;8543;54.522;18.550;2023-02-12T03:12:32;3.50;;;1.80;;
16854;SDS011;8543;54.522;18.550;2023-02-12T03:15:08;3.40;;;1.80;;
16854;SDS011;8543;54.522;18.550;2023-02-12T03:17:38;6.60;;;1.80;;
16854;SDS011;8543;54.522;18.550;2023-02-12T03:20:16;2.80;;;1.60;;
16854;SDS011;8543;54.522;18.550;2023-02-12T03:22:51;4.60;;;1.70;;
16854;SDS011;8543;54.522;18.550;2023-02-12T03:25:34;4.80;;;2.30;;
16854;SDS011;8543;54.522;18.550;2023-02-12T03:31:09;5.90;;;2.00;;
16854;SDS011;8543;54.522;18.550;2023-02-12T03:38:49;4.60;;;2.20;;
16854;SDS011;8543;54.522;18.550;2023-02-12T03:46:24;3.40;;;1.60;;
16854;SDS011;8543;54.522;18.550;2023-02-12T03:52:19;3.70;;;1.50;;
16854;SDS011;8543;54.522;18.550;2023-02-12T03:54:45;3.80;;;1.70;;
16854;SDS011;8543;54.522;18.550;2023-02-12T03:57:18;4.20;;;1.50;;
16854;SDS011;8543;54.522;18.550;2023-02-12T03:59:45;2.70;;;1.40;;
16854;SDS011;8543;54.522;18.550;2023-02-12T04:02:10;3.70;;;1.70;;
16854;SDS011;8543;54.522;18.550;2023-02-12T04:04:36;3.00;;;1.60;;
16854;SDS011;8543;54.522;18.550;2023-02-12T04:07:02;4.20;;;1.70;;
16854;SDS011;8543;54.522;18.550;2023-02-12T04:09:28;4.90;;;1.70;;
16854;SDS011;8543;54.522;18.550;2023-02-12T04:31:27;3.90;;;1.30;;
16854;SDS011;8543;54.522;18.550;2023-02-12T04:34:01;4.10;;;1.60;;
16854;SDS011;8543;54.522;18.550;2023-02-12T04:36:33;4.10;;;1.40;;
16854;SDS011;8543;54.522;18.550;2023-02-12T04:39:06;4.30;;;1.60;;
16854;SDS011;8543;54.522;18.550;2023-02-12T04:41:35;4.00;;;1.70;;
16854;SDS011;8543;54.522;18.550;2023-02-12T04:46:40;2.60;;;1.50;;
16854;SDS011;8543;54.522;18.550;2023-02-12T04:49:05;3.40;;;1.30;;
16854;SDS011;8543;54.522;18.550;2023-02-12T04:51:33;3.10;;;1.50;;
16854;SDS011;8543;54.522;18.550;2023-02-12T04:53:58;4.70;;;1.80;;
16854;SDS011;8543;54.522;18.550;2023-02-12T04:56:24;3.70;;;2.10;;
16854;SDS011;8543;54.522;18.550;2023-02-12T04:58:49;4.00;;;1.90;;
16854;SDS011;8543;54.522;18.550;2023-02-12T05:01:15;3.70;;;1.50;;
16854;SDS011;8543;54.522;18.550;2023-02-12T05:03:40;2.30;;;1.30;;
16854;SDS011;8543;54.522;18.550;2023-02-12T05:06:06;3.20;;;1.40;;
16854;SDS011;8543;54.522;18.550;2023-02-12T05:08:32;2.80;;;1.70;;
16854;SDS011;8543;54.522;18.550;2023-02-12T05:11:04;4.50;;;1.70;;
16854;SDS011;8543;54.522;18.550;2023-02-12T05:13:31;1.90;;;1.20;;
16854;SDS011;8543;54.522;18.550;2023-02-12T05:15:57;1.30;;;1.20;;
16854;SDS011;8543;54.522;18.550;2023-02-12T05:18:22;2.00;;;1.30;;
16854;SDS011;8543;54.522;18.550;2023-02-12T05:20:54;3.60;;;1.30;;
16854;SDS011;8543;54.522;18.550;2023-02-12T05:23:21;3.00;;;1.10;;
16854;SDS011;8543;54.522;18.550;2023-02-12T05:25:47;2.10;;;1.30;;
16854;SDS011;8543;54.522;18.550;2023-02-12T05:28:12;1.80;;;1.30;;
16854;SDS011;8543;54.522;18.550;2023-02-12T05:30:37;3.80;;;1.50;;
16854;SDS011;8543;54.522;18.550;2023-02-12T05:33:03;3.10;;;1.70;;
16854;SDS011;8543;54.522;18.550;2023-02-12T05:35:28;4.60;;;1.50;;
16854;SDS011;8543;54.522;18.550;2023-02-12T05:37:54;5.20;;;1.70;;
16854;SDS011;8543;54.522;18.550;2023-02-12T05:40:19;4.20;;;1.60;;
16854;SDS011;8543;54.522;18.550;2023-02-12T05:42:44;3.80;;;1.90;;
16854;SDS011;8543;54.522;18.550;2023-02-12T05:45:10;3.90;;;1.80;;
16854;SDS011;8543;54.522;18.550;2023-02-12T05:47:35;5.40;;;2.10;;
16854;SDS011;8543;54.522;18.550;2023-02-12T05:50:01;6.30;;;2.50;;
16854;SDS011;8543;54.522;18.550;2023-02-12T05:52:26;6.40;;;2.40;;
16854;SDS011;8543;54.522;18.550;2023-02-12T05:54:52;3.70;;;1.90;;
16854;SDS011;8543;54.522;18.550;2023-02-12T05:57:17;3.20;;;1.70;;
16854;SDS011;8543;54.522;18.550;2023-02-12T05:59:43;5.20;;;2.20;;
16854;SDS011;8543;54.522;18.550;2023-02-12T06:02:08;4.50;;;2.20;;
16854;SDS011;8543;54.522;18.550;2023-02-12T06:04:33;4.60;;;2.10;;
16854;SDS011;8543;54.522;18.550;2023-02-12T06:06:59;5.30;;;1.90;;
16854;SDS011;8543;54.522;18.550;2023-02-12T06:09:25;4.10;;;1.70;;
16854;SDS011;8543;54.522;18.550;2023-02-12T06:11:50;5.80;;;1.70;;
16854;SDS011;8543;54.522;18.550;2023-02-12T06:14:17;4.50;;;2.10;;
16854;SDS011;8543;54.522;18.550;2023-02-12T06:16:45;5.40;;;2.20;;
16854;SDS011;8543;54.522;18.550;2023-02-12T06:19:12;5.60;;;2.00;;
16854;SDS011;8543;54.522;18.550;2023-02-12T06:21:38;5.00;;;2.20;;
16854;SDS011;8543;54.522;18.550;2023-02-12T06:24:03;5.10;;;2.00;;
16854;SDS011;8543;54.522;18.550;2023-02-12T06:26:29;4.70;;;2.40;;
16854;SDS011;8543;54.522;18.550;2023-02-12T06:28:54;6.00;;;2.40;;
16854;SDS011;8543;54.522;18.550;2023-02-12T06:31:24;5.10;;;2.40;;
16854;SDS011;8543;54.522;18.550;2023-02-12T06:33:55;4.80;;;2.50;;
16854;SDS011;8543;54.522;18.550;2023-02-12T06:36:22;7.20;;;2.80;;
16854;SDS011;8543;54.522;18.550;2023-02-12T06:38:48;5.40;;;2.40;;
16854;SDS011;8543;54.522;18.550;2023-02-12T06:41:14;6.20;;;2.80;;
16854;SDS011;8543;54.522;18.550;2023-02-12T06:43:39;5.80;;;2.60;;
16854;SDS011;8543;54.522;18.550;2023-02-12T06:46:05;6.90;;;2.90;;
16854;SDS011;8543;54.522;18.550;2023-02-12T06:48:31;5.50;;;3.10;;
16854;SDS011;8543;54.522;18.550;2023-02-12T06:51:04;5.00;;;2.50;;
16854;SDS011;8543;54.522;18.550;2023-02-12T06:53:34;6.10;;;2.90;;
16854;SDS011;8543;54.522;18.550;2023-02-12T06:56:01;6.40;;;3.00;;
16854;SDS011;8543;54.522;18.550;2023-02-12T06:58:27;6.60;;;2.80;;
16854;SDS011;8543;54.522;18.550;2023-02-12T07:00:53;6.30;;;2.60;;
16854;SDS011;8543;54.522;18.550;2023-02-12T07:03:18;5.20;;;2.90;;
16854;SDS011;8543;54.522;18.550;2023-02-12T07:05:44;6.20;;;2.80;;
16854;SDS011;8543;54.522;18.550;2023-02-12T07:08:10;6.00;;;2.80;;
16854;SDS011;8543;54.522;18.550;2023-02-12T07:10:35;6.40;;;2.70;;
16854;SDS011;8543;54.522;18.550;2023-02-12T07:13:01;6.20;;;2.80;;
16854;SDS011;8543;54.522;18.550;2023-02-12T07:15:26;6.40;;;3.00;;
16854;SDS011;8543;54.522;18.550;2023-02-12T07:17:51;5.80;;;2.70;;
16854;SDS011;8543;54.522;18.550;2023-02-12T07:20:17;6.10;;;2.90;;
16854;SDS011;8543;54.522;18.550;2023-02-12T07:22:42;7.90;;;3.50;;
16854;SDS011;8543;54.522;18.550;2023-02-12T07:25:08;6.90;;;3.10;;
16854;SDS011;8543;54.522;18.550;2023-02-12T07:27:36;5.90;;;3.40;;
16854;SDS011;8543;54.522;18.550;2023-02-12T07:30:03;6.70;;;3.50;;
16854;SDS011;8543;54.522;18.550;2023-02-12T07:32:32;5.80;;;3.50;;
16854;SDS011;8543;54.522;18.550;2023-02-12T07:34:58;7.40;;;3.70;;
16854;SDS011;8543;54.522;18.550;2023-02-12T07:37:23;5.90;;;3.20;;
16854;SDS011;8543;54.522;18.550;2023-02-12T07:39:49;6.30;;;3.40;;
16854;SDS011;8543;54.522;18.550;2023-02-12T07:42:14;6.60;;;3.40;;
16854;SDS011;8543;54.522;18.550;2023-02-12T07:44:40;5.10;;;2.90;;
16854;SDS011;8543;54.522;18.550;2023-02-12T07:47:05;7.30;;;3.80;;
16854;SDS011;8543;54.522;18.550;2023-02-12T07:49:30;8.40;;;4.00;;
16854;SDS011;8543;54.522;18.550;2023-02-12T07:51:56;7.50;;;3.90;;
16854;SDS011;8543;54.522;18.550;2023-02-12T07:54:21;6.40;;;3.50;;
16854;SDS011;8543;54.522;18.550;2023-02-12T07:56:47;7.10;;;3.60;;
16854;SDS011;8543;54.522;18.550;2023-02-12T07:59:13;7.10;;;3.20;;
16854;SDS011;8543;54.522;18.550;2023-02-12T08:01:42;5.60;;;3.00;;
16854;SDS011;8543;54.522;18.550;2023-02-12T08:04:10;7.00;;;3.10;;
16854;SDS011;8543;54.522;18.550;2023-02-12T08:06:38;5.80;;;3.20;;
16854;SDS011;8543;54.522;18.550;2023-02-12T08:09:09;6.10;;;3.40;;
16854;SDS011;8543;54.522;18.550;2023-02-12T08:11:36;7.10;;;3.50;;
16854;SDS011;8543;54.522;18.550;2023-02-12T08:14:03;6.30;;;3.00;;
16854;SDS011;8543;54.522;18.550;2023-02-12T08:16:29;5.70;;;3.20;;
16854;SDS011;8543;54.522;18.550;2023-02-12T08:18:56;5.80;;;3.10;;
16854;SDS011;8543;54.522;18.550;2023-02-12T08:21:22;6.20;;;3.20;;
16854;SDS011;8543;54.522;18.550;2023-02-12T08:23:50;6.30;;;3.40;;
16854;SDS011;8543;54.522;18.550;2023-02-12T08:26:20;8.40;;;3.50;;
16854;SDS011;8543;54.522;18.550;2023-02-12T08:28:50;6.90;;;3.80;;
16854;SDS011;8543;54.522;18.550;2023-02-12T08:31:21;6.60;;;3.70;;
16854;SDS011;8543;54.522;18.550;2023-02-12T08:33:49;7.40;;;3.60;;
16854;SDS011;8543;54.522;18.550;2023-02-12T08:36:16;8.50;;;4.40;;
16854;SDS011;8543;54.522;18.550;2023-02-12T08:38:43;6.70;;;3.50;;
16854;SDS011;8543;54.522;18.550;2023-02-12T08:41:10;8.40;;;3.60;;
16854;SDS011;8543;54.522;18.550;2023-02-12T08:43:38;7.00;;;3.20;;
16854;SDS011;8543;54.522;18.550;2023-02-12T08:46:05;8.70;;;3.90;;
16854;SDS011;8543;54.522;18.550;2023-02-12T08:48:32;7.70;;;3.80;;
16854;SDS011;8543;54.522;18.550;2023-02-12T08:51:05;6.80;;;3.50;;
16854;SDS011;8543;54.522;18.550;2023-02-12T08:53:33;8.50;;;4.30;;
16854;SDS011;8543;54.522;18.550;2023-02-12T08:55:58;8.40;;;4.40;;
16854;SDS011;8543;54.522;18.550;2023-02-12T08:58:24;8.00;;;4.10;;
16854;SDS011;8543;54.522;18.550;2023-02-12T09:00:49;7.90;;;3.80;;
16854;SDS011;8543;54.522;18.550;2023-02-12T09:03:15;9.60;;;4.00;;
16854;SDS011;8543;54.522;18.550;2023-02-12T09:05:40;9.20;;;4.50;;
16854;SDS011;8543;54.522;18.550;2023-02-12T09:08:06;6.10;;;4.00;;
16854;SDS011;8543;54.522;18.550;2023-02-12T09:10:32;7.20;;;4.10;;
16854;SDS011;8543;54.522;18.550;2023-02-12T09:12:58;8.60;;;4.30;;
16854;SDS011;8543;54.522;18.550;2023-02-12T09:15:24;10.70;;;5.00;;
16854;SDS011;8543;54.522;18.550;2023-02-12T09:17:49;9.80;;;4.50;;
16854;SDS011;8543;54.522;18.550;2023-02-12T09:20:15;7.90;;;4.50;;
16854;SDS011;8543;54.522;18.550;2023-02-12T09:22:40;8.20;;;4.50;;
16854;SDS011;8543;54.522;18.550;2023-02-12T09:25:06;7.30;;;4.30;;
16854;SDS011;8543;54.522;18.550;2023-02-12T09:27:31;8.80;;;4.40;;
16854;SDS011;8543;54.522;18.550;2023-02-12T09:29:57;8.90;;;4.50;;
16854;SDS011;8543;54.522;18.550;2023-02-12T09:32:22;8.90;;;4.10;;
16854;SDS011;8543;54.522;18.550;2023-02-12T09:34:48;9.50;;;4.40;;
16854;SDS011;8543;54.522;18.550;2023-02-12T09:37:13;7.00;;;4.00;;
16854;SDS011;8543;54.522;18.550;2023-02-12T09:39:39;9.80;;;4.40;;
16854;SDS011;8543;54.522;18.550;2023-02-12T09:47:36;8.10;;;4.70;;
16854;SDS011;8543;54.522;18.550;2023-02-12T09:50:16;10.20;;;5.20;;
16854;SDS011;8543;54.522;18.550;2023-02-12T09:52:47;11.50;;;4.70;;
16854;SDS011;8543;54.522;18.550;2023-02-12T09:55:14;8.50;;;4.20;;
16854;SDS011;8543;54.522;18.550;2023-02-12T09:57:40;9.80;;;4.70;;
16854;SDS011;8543;54.522;18.550;2023-02-12T10:00:08;9.80;;;4.70;;
16854;SDS011;8543;54.522;18.550;2023-02-12T10:02:36;10.00;;;4.50;;
16854;SDS011;8543;54.522;18.550;2023-02-12T10:05:04;7.40;;;4.00;;
16854;SDS011;8543;54.522;18.550;2023-02-12T10:07:37;10.20;;;4.90;;
16854;SDS011;8543;54.522;18.550;2023-02-12T10:12:39;6.90;;;4.10;;
16854;SDS011;8543;54.522;18.550;2023-02-12T10:17:39;9.30;;;4.60;;
16854;SDS011;8543;54.522;18.550;2023-02-12T10:28:37;10.60;;;4.80;;
16854;SDS011;8543;54.522;18.550;2023-02-12T10:31:20;8.20;;;4.40;;
16854;SDS011;8543;54.522;18.550;2023-02-12T10:33:56;7.70;;;4.80;;
16854;SDS011;8543;54.522;18.550;2023-02-12T10:36:26;9.90;;;4.40;;
16854;SDS011;8543;54.522;18.550;2023-02-12T10:38:54;10.50;;;4.80;;
16854;SDS011;8543;54.522;18.550;2023-02-12T10:41:23;8.30;;;4.50;;
16854;SDS011;8543;54.522;18.550;2023-02-12T10:43:51;8.90;;;4.60;;
16854;SDS011;8543;54.522;18.550;2023-02-12T10:46:17;10.60;;;5.20;;
16854;SDS011;8543;54.522;18.550;2023-02-12T10:48:46;7.30;;;4.30;;
16854;SDS011;8543;54.522;18.550;2023-02-12T10:51:34;8.50;;;4.50;;
16854;SDS011;8543;54.522;18.550;2023-02-12T10:57:07;7.90;;;4.00;;
16854;SDS011;8543;54.522;18.550;2023-02-12T10:59:40;8.20;;;4.10;;
16854;SDS011;8543;54.522;18.550;2023-02-12T11:02:23;9.80;;;4.20;;
16854;SDS011;8543;54.522;18.550;2023-02-12T11:04:50;7.60;;;4.30;;
16854;SDS011;8543;54.522;18.550;2023-02-12T11:07:17;7.60;;;4.20;;
16854;SDS011;8543;54.522;18.550;2023-02-12T11:09:46;7.70;;;4.20;;
16854;SDS011;8543;54.522;18.550;2023-02-12T11:12:18;8.40;;;4.30;;
16854;SDS011;8543;54.522;18.550;2023-02-12T11:14:49;8.40;;;4.30;;
16854;SDS011;8543;54.522;18.550;2023-02-12T11:17:35;8.10;;;4.30;;
16854;SDS011;8543;54.522;18.550;2023-02-12T11:20:07;11.10;;;4.70;;
16854;SDS011;8543;54.522;18.550;2023-02-12T11:25:18;9.30;;;4.40;;
16854;SDS011;8543;54.522;18.550;2023-02-12T11:27:44;9.80;;;4.30;;
16854;SDS011;8543;54.522;18.550;2023-02-12T11:30:23;8.50;;;4.40;;
16854;SDS011;8543;54.522;18.550;2023-02-12T11:32:49;9.40;;;4.50;;
16854;SDS011;8543;54.522;18.550;2023-02-12T11:35:17;10.00;;;4.60;;
16854;SDS011;8543;54.522;18.550;2023-02-12T11:37:49;10.60;;;4.90;;
16854;SDS011;8543;54.522;18.550;2023-02-12T11:40:20;11.30;;;5.50;;
16854;SDS011;8543;54.522;18.550;2023-02-12T11:42:51;10.10;;;5.50;;
16854;SDS011;8543;54.522;18.550;2023-02-12T11:45:20;12.40;;;5.70;;
16854;SDS011;8543;54.522;18.550;2023-02-12T11:47:47;9.80;;;5.60;;
16854;SDS011;8543;54.522;18.550;2023-02-12T11:50:26;10.10;;;5.40;;
16854;SDS011;8543;54.522;18.550;2023-02-12T11:52:55;13.60;;;6.00;;
16854;SDS011;8543;54.522;18.550;2023-02-12T11:55:24;11.80;;;5.70;;
16854;SDS011;8543;54.522;18.550;2023-02-12T11:57:53;11.90;;;5.60;;
16854;SDS011;8543;54.522;18.550;2023-02-12T12:00:34;12.00;;;5.40;;
16854;SDS011;8543;54.522;18.550;2023-02-12T12:05:51;14.00;;;5.90;;
16854;SDS011;8543;54.522;18.550;2023-02-12T12:08:25;8.40;;;5.20;;
16854;SDS011;8543;54.522;18.550;2023-02-12T12:13:23;9.50;;;5.10;;
16854;SDS011;8543;54.522;18.550;2023-02-12T12:16:26;9.40;;;4.90;;
16854;SDS011;8543;54.522;18.550;2023-02-12T12:19:10;11.40;;;5.10;;
16854;SDS011;8543;54.522;18.550;2023-02-12T12:24:42;11.00;;;4.80;;
16854;SDS011;8543;54.522;18.550;2023-02-12T12:30:17;12.80;;;4.40;;
16854;SDS011;8543;54.522;18.550;2023-02-12T12:32:46;10.40;;;4.70;;
16854;SDS011;8543;54.522;18.550;2023-02-12T12:35:16;8.50;;;4.10;;
16854;SDS011;8543;54.522;18.550;2023-02-12T12:37:53;13.10;;;4.80;;
16854;SDS011;8543;54.522;18.550;2023-02-12T12:40:31;12.20;;;4.80;;
16854;SDS011;8543;54.522;18.550;2023-02-12T12:43:07;10.90;;;4.60;;
16854;SDS011;8543;54.522;18.550;2023-02-12T12:53:54;10.90;;;4.70;;
16854;SDS011;8543;54.522;18.550;2023-02-12T12:56:54;14.90;;;5.70;;
16854;SDS011;8543;54.522;18.550;2023-02-12T12:59:35;13.90;;;5.20;;
16854;SDS011;8543;54.522;18.550;2023-02-12T13:02:27;12.30;;;5.80;;
16854;SDS011;8543;54.522;18.550;2023-02-12T13:12:49;11.00;;;5.60;;
16854;SDS011;8543;54.522;18.550;2023-02-12T13:21:03;11.30;;;5.10;;
16854;SDS011;8543;54.522;18.550;2023-02-12T13:23:39;10.70;;;5.20;;
16854;SDS011;8543;54.522;18.550;2023-02-12T13:26:18;10.00;;;4.90;;
16854;SDS011;8543;54.522;18.550;2023-02-12T13:28:55;10.10;;;4.50;;
16854;SDS011;8543;54.522;18.550;2023-02-12T13:31:41;10.60;;;5.30;;
16854;SDS011;8543;54.522;18.550;2023-02-12T13:34:11;9.90;;;4.40;;
16854;SDS011;8543;54.522;18.550;2023-02-12T13:36:38;12.00;;;5.00;;
16854;SDS011;8543;54.522;18.550;2023-02-12T13:41:44;9.50;;;5.10;;
16854;SDS011;8543;54.522;18.550;2023-02-12T13:44:22;11.00;;;5.00;;
16854;SDS011;8543;54.522;18.550;2023-02-12T13:55:22;9.70;;;4.40;;
16854;SDS011;8543;54.522;18.550;2023-02-12T14:03:35;8.80;;;4.10;;
16854;SDS011;8543;54.522;18.550;2023-02-12T14:08:38;8.00;;;4.50;;
16854;SDS011;8543;54.522;18.550;2023-02-12T14:11:10;9.10;;;4.00;;
16854;SDS011;8543;54.522;18.550;2023-02-12T14:14:11;7.50;;;4.20;;
16854;SDS011;8543;54.522;18.550;2023-02-12T14:22:01;10.30;;;4.50;;
16854;SDS011;8543;54.522;18.550;2023-02-12T14:27:05;7.30;;;4.00;;
16854;SDS011;8543;54.522;18.550;2023-02-12T14:30:02;7.40;;;4.00;;
16854;SDS011;8543;54.522;18.550;2023-02-12T14:37:51;8.10;;;3.90;;
16854;SDS011;8543;54.522;18.550;2023-02-12T14:42:59;8.30;;;4.10;;
16854;SDS011;8543;54.522;18.550;2023-02-12T14:45:30;8.60;;;4.60;;
16854;SDS011;8543;54.522;18.550;2023-02-12T14:47:58;8.40;;;3.80;;
16854;SDS011;8543;54.522;18.550;2023-02-12T14:50:25;8.00;;;3.90;;
16854;SDS011;8543;54.522;18.550;2023-02-12T14:53:03;7.50;;;3.40;;
16854;SDS011;8543;54.522;18.550;2023-02-12T14:55:32;6.40;;;3.50;;
16854;SDS011;8543;54.522;18.550;2023-02-12T15:01:25;7.00;;;3.50;;
16854;SDS011;8543;54.522;18.550;2023-02-12T15:03:55;5.90;;;3.30;;
16854;SDS011;8543;54.522;18.550;2023-02-12T15:06:22;6.40;;;3.40;;
16854;SDS011;8543;54.522;18.550;2023-02-12T15:09:05;7.70;;;3.50;;
16854;SDS011;8543;54.522;18.550;2023-02-12T15:14:22;6.30;;;3.10;;
16854;SDS011;8543;54.522;18.550;2023-02-12T15:17:13;8.30;;;3.10;;
16854;SDS011;8543;54.522;18.550;2023-02-12T15:19:51;6.00;;;2.50;;
16854;SDS011;8543;54.522;18.550;2023-02-12T15:22:26;6.90;;;3.00;;
16854;SDS011;8543;54.522;18.550;2023-02-12T15:27:56;6.30;;;3.30;;
16854;SDS011;8543;54.522;18.550;2023-02-12T15:30:24;5.30;;;2.60;;
16854;SDS011;8543;54.522;18.550;2023-02-12T15:32:51;5.30;;;2.60;;
16854;SDS011;8543;54.522;18.550;2023-02-12T15:35:25;4.50;;;2.70;;
16854;SDS011;8543;54.522;18.550;2023-02-12T15:38:01;4.70;;;2.90;;
16854;SDS011;8543;54.522;18.550;2023-02-12T15:40:28;4.90;;;2.60;;
16854;SDS011;8543;54.522;18.550;2023-02-12T15:45:28;5.30;;;2.50;;
16854;SDS011;8543;54.522;18.550;2023-02-12T15:48:06;5.70;;;3.00;;
16854;SDS011;8543;54.522;18.550;2023-02-12T15:50:34;5.40;;;3.10;;
16854;SDS011;8543;54.522;18.550;2023-02-12T15:53:22;6.90;;;2.60;;
16854;SDS011;8543;54.522;18.550;2023-02-12T15:55:50;5.30;;;2.60;;
16854;SDS011;8543;54.522;18.550;2023-02-12T15:58:26;3.50;;;2.10;;
16854;SDS011;8543;54.522;18.550;2023-02-12T16:00:53;4.00;;;2.10;;
16854;SDS011;8543;54.522;18.550;2023-02-12T16:03:21;4.70;;;2.80;;
16854;SDS011;8543;54.522;18.550;2023-02-12T16:05:47;6.00;;;2.90;;
16854;SDS011;8543;54.522;18.550;2023-02-12T16:08:14;5.20;;;2.80;;
16854;SDS011;8543;54.522;18.550;2023-02-12T16:10:44;4.30;;;2.60;;
16854;SDS011;8543;54.522;18.550;2023-02-12T16:13:33;4.10;;;2.40;;
16854;SDS011;8543;54.522;18.550;2023-02-12T16:16:04;3.50;;;2.10;;
16854;SDS011;8543;54.522;18.550;2023-02-12T16:18:32;4.30;;;2.30;;
16854;SDS011;8543;54.522;18.550;2023-02-12T16:21:01;4.20;;;2.10;;
16854;SDS011;8543;54.522;18.550;2023-02-12T16:23:47;3.10;;;1.90;;
16854;SDS011;8543;54.522;18.550;2023-02-12T16:26:18;5.00;;;2.70;;
16854;SDS011;8543;54.522;18.550;2023-02-12T16:28:49;3.80;;;2.30;;
16854;SDS011;8543;54.522;18.550;2023-02-12T16:31:17;4.10;;;2.10;;
16854;SDS011;8543;54.522;18.550;2023-02-12T16:33:45;4.80;;;2.20;;
16854;SDS011;8543;54.522;18.550;2023-02-12T16:38:48;3.90;;;2.10;;
16854;SDS011;8543;54.522;18.550;2023-02-12T16:41:29;4.40;;;2.60;;
16854;SDS011;8543;54.522;18.550;2023-02-12T16:46:27;4.80;;;2.20;;
16854;SDS011;8543;54.522;18.550;2023-02-12T16:48:54;4.40;;;2.30;;
16854;SDS011;8543;54.522;18.550;2023-02-12T16:51:22;4.10;;;2.40;;
16854;SDS011;8543;54.522;18.550;2023-02-12T16:53:50;4.90;;;2.50;;
16854;SDS011;8543;54.522;18.550;2023-02-12T16:56:19;4.40;;;2.60;;
16854;SDS011;8543;54.522;18.550;2023-02-12T16:58:50;5.20;;;2.60;;
16854;SDS011;8543;54.522;18.550;2023-02-12T17:01:20;5.50;;;2.70;;
16854;SDS011;8543;54.522;18.550;2023-02-12T17:03:57;4.90;;;2.60;;
16854;SDS011;8543;54.522;18.550;2023-02-12T17:06:26;5.00;;;2.40;;
16854;SDS011;8543;54.522;18.550;2023-02-12T17:08:53;5.60;;;2.80;;
16854;SDS011;8543;54.522;18.550;2023-02-12T17:11:18;5.20;;;2.90;;
16854;SDS011;8543;54.522;18.550;2023-02-12T17:13:45;6.20;;;3.20;;
16854;SDS011;8543;54.522;18.550;2023-02-12T17:16:12;5.40;;;3.00;;
16854;SDS011;8543;54.522;18.550;2023-02-12T17:18:38;4.80;;;2.80;;
16854;SDS011;8543;54.522;18.550;2023-02-12T17:21:04;5.30;;;3.10;;
16854;SDS011;8543;54.522;18.550;2023-02-12T17:23:39;7.10;;;3.60;;
16854;SDS011;8543;54.522;18.550;2023-02-12T17:26:05;6.50;;;3.50;;
16854;SDS011;8543;54.522;18.550;2023-02-12T17:28:32;6.00;;;3.50;;
16854;SDS011;8543;54.522;18.550;2023-02-12T17:30:57;5.60;;;3.20;;
16854;SDS011;8543;54.522;18.550;2023-02-12T17:33:25;5.60;;;3.10;;
16854;SDS011;8543;54.522;18.550;2023-02-12T17:35:51;5.20;;;3.40;;
16854;SDS011;8543;54.522;18.550;2023-02-12T17:38:16;6.00;;;3.60;;
16854;SDS011;8543;54.522;18.550;2023-02-12T17:40:42;6.40;;;3.40;;
16854;SDS011;8543;54.522;18.550;2023-02-12T17:43:07;6.00;;;3.60;;
16854;SDS011;8543;54.522;18.550;2023-02-12T17:45:33;7.00;;;3.60;;
16854;SDS011;8543;54.522;18.550;2023-02-12T17:47:59;6.00;;;3.40;;
16854;SDS011;8543;54.522;18.550;2023-02-12T17:50:24;6.50;;;3.60;;
16854;SDS011;8543;54.522;18.550;2023-02-12T17:52:50;6.30;;;3.30;;
16854;SDS011;8543;54.522;18.550;2023-02-12T17:55:15;6.30;;;3.70;;